WetterOnline ( http://www.wetteronline.de )

Wetter aktuell Bamberg

Aktuelles Wetter: Bamberg (243m)

6-stündlich | Neueste Meldungen
Ortszeit Temperatur Wetter
Fr, 17.08. 20:00 26.4° C wolkig
Fr, 17.08. 14:00 31.7° C leicht bewölkt
Fr, 17.08. 8:00 16.5° C fast wolkenlos
Fr, 17.08. 2:00 13.8° C wolkenlos
Do, 16.08. 20:00 27.3° C wolkenlos
Do, 16.08. 14:00 28.0° C wolkenlos
Do, 16.08. 8:00 13.7° C wolkenlos
Do, 16.08. 2:00 11.2° C wolkenlos
Ortszeit Temperatur Wetter
Fr, 17.08. 20:00 26.4° C wolkig
Fr, 17.08. 19:50 26.4° C wolkig
Fr, 17.08. 19:40 26.1° C wolkig
Fr, 17.08. 19:30 28.9° C wolkig
Fr, 17.08. 19:20 28.9° C wolkig
Fr, 17.08. 19:10 30.1° C bewölkt
Fr, 17.08. 19:00 30.4° C wolkig
Fr, 17.08. 18:30 31.4° C leicht bewölkt
Fr, 17.08. 18:00 32.3° C wolkig
Fr, 17.08. 17:30 32.4° C wolkenlos
Fr, 17.08. 17:00 31.4° C fast wolkenlos
Ortszeit Relative Feuchte Sichtweite
Fr, 17.08. 20:00 42% >70 km
Fr, 17.08. 14:00 26% 40 km
Fr, 17.08. 8:00 75% 35 km
Fr, 17.08. 2:00 88% 40 km
Do, 16.08. 20:00 42% >70 km
Do, 16.08. 14:00 35% -
Do, 16.08. 8:00 82% 21 km
Do, 16.08. 2:00 94% 17 km
Ortszeit Relative Feuchte Sichtweite
Fr, 17.08. 20:00 42% >70 km
Fr, 17.08. 19:50 42% -
Fr, 17.08. 19:40 52% -
Fr, 17.08. 19:30 34% 65 km
Fr, 17.08. 19:20 34% -
Fr, 17.08. 19:10 29% -
Fr, 17.08. 19:00 29% 55 km
Fr, 17.08. 18:30 25% 50 km
Fr, 17.08. 18:00 23% 65 km
Fr, 17.08. 17:30 22% 55 km
Fr, 17.08. 17:00 28% 55 km
Ortszeit Niederschlagsmenge Niederschlagsart
Fr, 17.08. 20:00 0.0 l/m2 in 12 Std. -
Fr, 17.08. 14:00 0.0 l/m2 in 6 Std. -
Fr, 17.08. 8:00 0.0 l/m2 in 12 Std. -
Fr, 17.08. 2:00 0.0 l/m2 in 6 Std. -
Do, 16.08. 20:00 0.0 l/m2 in 12 Std. -
Do, 16.08. 14:00 0.0 l/m2 in 6 Std. -
Do, 16.08. 8:00 0.0 l/m2 in 12 Std. -
Do, 16.08. 2:00 0.0 l/m2 in 6 Std. -
Ortszeit Niederschlagsmenge Niederschlagsart
Fr, 17.08. 20:00 0.0 l/m2 in 1 Std. -
Fr, 17.08. 19:50 keine Meldung -
Fr, 17.08. 19:40 keine Meldung -
Fr, 17.08. 19:30 0.0 l/m2 in 1 Std. -
Fr, 17.08. 19:20 keine Meldung -
Fr, 17.08. 19:10 keine Meldung -
Fr, 17.08. 19:00 0.0 l/m2 in 1 Std. -
Fr, 17.08. 18:30 0.0 l/m2 in 1 Std. -
Fr, 17.08. 18:00 0.0 l/m2 in 1 Std. -
Fr, 17.08. 17:30 0.0 l/m2 in 1 Std. -
Fr, 17.08. 17:00 0.0 l/m2 in 1 Std. -
Ortszeit Stärke Spitze Richtung
km/h Bft. km/h Grad Sektor
Fr, 17.08. 20:00 4 1 22 130° SO
Fr, 17.08. 14:00 7 2 22 250° W
Fr, 17.08. 8:00 0 0 4 - -
Fr, 17.08. 2:00 4 1 7 110° O
Do, 16.08. 20:00 4 1 29 140° SO
Do, 16.08. 14:00 11 2 22 170° S
Do, 16.08. 8:00 2 1 4 140° SO
Do, 16.08. 2:00 4 1 25 110° O
Ortszeit Stärke Spitze Richtung
km/h Bft. km/h Grad Sektor
Fr, 17.08. 20:00 4 1 7 130° SO
Fr, 17.08. 19:50 4 1 - 130° SO
Fr, 17.08. 19:40 4 1 - 140° SO
Fr, 17.08. 19:30 4 1 7 200° S
Fr, 17.08. 19:20 4 1 - 200° S
Fr, 17.08. 19:10 6 1 - 170° S
Fr, 17.08. 19:00 6 1 20 90° O
Fr, 17.08. 18:30 9 2 15 110° O
Fr, 17.08. 18:00 7 2 18 150° SO
Fr, 17.08. 17:30 7 2 18 220° SW
Fr, 17.08. 17:00 9 2 20 350° N
Ortszeit Untergrenze Bedeckung Gattung
total tief tief mittel hoch
Fr, 17.08. 20:00 3300 m 8/8 1/8 - - -
Fr, 17.08. 14:00 2400 m 5/8 2/8 - - -
Fr, 17.08. 8:00 9000 m 2/8 0/8 - - -
Fr, 17.08. 2:00 - 0/8 0/8 - - -
Do, 16.08. 20:00 - 0/8 0/8 - - -
Do, 16.08. 14:00 - 0/8 0/8 - - -
Do, 16.08. 8:00 - 0/8 0/8 - - -
Do, 16.08. 2:00 - 0/8 0/8 - - -
Ortszeit Bedeckungsgrad in Achtel und Wolkenuntergrenze
Fr, 17.08. 20:00 1(3300m) 5(7500m) 8(8100m)
Fr, 17.08. 19:50 1(3300m) 5(7500m) 8(8100m)
Fr, 17.08. 19:40 8(8100m)
Fr, 17.08. 19:30 3(3000m) 7(8100m) 7(9000m)
Fr, 17.08. 19:20 3(3000m) 7(8100m)
Fr, 17.08. 19:10 6(3000m) 6(3600m) 7(8100m)
Fr, 17.08. 19:00 5(3000m) 5(3600m)
Fr, 17.08. 18:30 2(2700m)
Fr, 17.08. 18:00 5(2700m)
Fr, 17.08. 17:30 2(3000m)
Fr, 17.08. 17:00 1(9000m)
Ortszeit Luftdruck NN (hPa) Tendenz (hPa in 3 Std.)
Fr, 17.08. 20:00 1013 + 0,3
Fr, 17.08. 14:00 1013 - 0,9
Fr, 17.08. 8:00 1015 + 0,8
Fr, 17.08. 2:00 1015 + 0,4
Do, 16.08. 20:00 1013 - 0,9
Do, 16.08. 14:00 1016 - 1,8
Do, 16.08. 8:00 1020 - 0,3
Do, 16.08. 2:00 1021 + 0,1
Ortszeit Luftdruck NN (hPa) Tendenz (hPa in 3 Std.)
Fr, 17.08. 20:00 1013 + 0,3
Fr, 17.08. 19:50 1013 keine Meldung
Fr, 17.08. 19:40 1013 keine Meldung
Fr, 17.08. 19:30 1012 - 0,2
Fr, 17.08. 19:20 1012 keine Meldung
Fr, 17.08. 19:10 1012 keine Meldung
Fr, 17.08. 19:00 1012 - 0,6
Fr, 17.08. 18:30 1012 - 0,9
Fr, 17.08. 18:00 1012 - 1,0
Fr, 17.08. 17:30 1012 - 0,9
Fr, 17.08. 17:00 1012 - 1,1
Ortszeit Schneehöhe (cm)
Fr, 17.08. 20:00 -
Fr, 17.08. 14:00 -
Fr, 17.08. 8:00 -
Fr, 17.08. 2:00 -
Do, 16.08. 20:00 -
Do, 16.08. 14:00 -
Do, 16.08. 8:00 -
Do, 16.08. 2:00 -
Ortszeit Schneehöhe (cm)
Fr, 17.08. 20:00 -
Fr, 17.08. 19:50 -
Fr, 17.08. 19:40 -
Fr, 17.08. 19:30 -
Fr, 17.08. 19:20 -
Fr, 17.08. 19:10 -
Fr, 17.08. 19:00 -
Fr, 17.08. 18:30 -
Fr, 17.08. 18:00 -
Fr, 17.08. 17:30 -
Fr, 17.08. 17:00 -
Link zu dieser Seite / Seite empfehlen

Das Wetter in ...